sensor_id;sensor_type;location;lat;lon;timestamp;pressure;altitude;pressure_sealevel;temperature;humidity
47636;BME280;33364;50.766;15.338;2023-07-31T00:01:22;94940.81;;;13.12;86.37
47636;BME280;33364;50.766;15.338;2023-07-31T00:03:48;94952.41;;;13.16;86.46
47636;BME280;33364;50.766;15.338;2023-07-31T00:06:14;94938.66;;;13.14;86.93
47636;BME280;33364;50.766;15.338;2023-07-31T00:08:40;94945.41;;;13.20;86.75
47636;BME280;33364;50.766;15.338;2023-07-31T00:11:06;94945.88;;;13.22;86.75
47636;BME280;33364;50.766;15.338;2023-07-31T00:13:32;94950.22;;;13.18;86.34
47636;BME280;33364;50.766;15.338;2023-07-31T00:15:58;94942.75;;;13.20;86.51
47636;BME280;33364;50.766;15.338;2023-07-31T00:18:24;94949.56;;;13.13;86.21
47636;BME280;33364;50.766;15.338;2023-07-31T00:20:50;94951.31;;;13.17;86.02
47636;BME280;33364;50.766;15.338;2023-07-31T00:23:16;94950.13;;;13.09;86.27
47636;BME280;33364;50.766;15.338;2023-07-31T00:25:42;94949.44;;;13.18;86.43
47636;BME280;33364;50.766;15.338;2023-07-31T00:28:08;94949.94;;;13.06;85.69
47636;BME280;33364;50.766;15.338;2023-07-31T00:30:33;94948.84;;;13.07;86.20
47636;BME280;33364;50.766;15.338;2023-07-31T00:32:59;94945.19;;;12.94;85.84
47636;BME280;33364;50.766;15.338;2023-07-31T00:35:25;94946.09;;;12.90;86.25
47636;BME280;33364;50.766;15.338;2023-07-31T00:37:51;94953.56;;;12.88;86.18
47636;BME280;33364;50.766;15.338;2023-07-31T00:40:16;94946.69;;;12.87;86.72
47636;BME280;33364;50.766;15.338;2023-07-31T00:42:42;94947.75;;;12.86;86.58
47636;BME280;33364;50.766;15.338;2023-07-31T00:45:08;94947.28;;;12.84;86.65
47636;BME280;33364;50.766;15.338;2023-07-31T00:47:34;94944.63;;;12.84;86.99
47636;BME280;33364;50.766;15.338;2023-07-31T00:50:00;94938.84;;;12.82;86.52
47636;BME280;33364;50.766;15.338;2023-07-31T00:52:26;94938.56;;;12.69;86.55
47636;BME280;33364;50.766;15.338;2023-07-31T00:54:51;94935.69;;;12.57;87.33
47636;BME280;33364;50.766;15.338;2023-07-31T00:57:18;94937.13;;;12.63;87.66
47636;BME280;33364;50.766;15.338;2023-07-31T00:59:43;94938.09;;;12.67;86.80
47636;BME280;33364;50.766;15.338;2023-07-31T01:02:09;94939.06;;;12.72;86.88
47636;BME280;33364;50.766;15.338;2023-07-31T01:04:35;94932.56;;;12.78;86.17
47636;BME280;33364;50.766;15.338;2023-07-31T01:10:19;94929.66;;;12.65;86.01
47636;BME280;33364;50.766;15.338;2023-07-31T01:12:47;94928.03;;;12.56;85.78
47636;BME280;33364;50.766;15.338;2023-07-31T01:15:13;94935.56;;;12.62;85.46
47636;BME280;33364;50.766;15.338;2023-07-31T01:17:42;94943.06;;;12.47;85.40
47636;BME280;33364;50.766;15.338;2023-07-31T01:20:23;94938.16;;;12.40;85.76
47636;BME280;33364;50.766;15.338;2023-07-31T01:28:55;94932.63;;;12.50;85.28
47636;BME280;33364;50.766;15.338;2023-07-31T01:31:24;94935.41;;;12.45;85.08
47636;BME280;33364;50.766;15.338;2023-07-31T01:33:53;94932.63;;;12.50;85.08
47636;BME280;33364;50.766;15.338;2023-07-31T01:36:20;94927.63;;;12.49;84.92
47636;BME280;33364;50.766;15.338;2023-07-31T01:38:46;94929.59;;;12.43;84.96
47636;BME280;33364;50.766;15.338;2023-07-31T01:41:11;94935.22;;;12.42;85.35
47636;BME280;33364;50.766;15.338;2023-07-31T01:43:37;94932.94;;;12.49;85.29
47636;BME280;33364;50.766;15.338;2023-07-31T01:46:03;94930.50;;;12.39;85.28
47636;BME280;33364;50.766;15.338;2023-07-31T01:48:29;94931.38;;;12.34;84.97
47636;BME280;33364;50.766;15.338;2023-07-31T01:51:01;94930.31;;;12.35;84.91
47636;BME280;33364;50.766;15.338;2023-07-31T01:53:28;94923.63;;;12.38;84.73
47636;BME280;33364;50.766;15.338;2023-07-31T01:55:53;94920.22;;;12.37;84.33
47636;BME280;33364;50.766;15.338;2023-07-31T01:58:19;94924.53;;;12.33;84.72
47636;BME280;33364;50.766;15.338;2023-07-31T02:00:45;94929.25;;;12.36;84.84
47636;BME280;33364;50.766;15.338;2023-07-31T02:03:12;94922.28;;;12.26;84.87
47636;BME280;33364;50.766;15.338;2023-07-31T02:05:44;94923.00;;;12.05;85.31
47636;BME280;33364;50.766;15.338;2023-07-31T02:08:11;94917.19;;;12.03;85.76
47636;BME280;33364;50.766;15.338;2023-07-31T02:10:36;94914.66;;;11.98;85.69
47636;BME280;33364;50.766;15.338;2023-07-31T02:13:02;94915.94;;;11.87;86.18
47636;BME280;33364;50.766;15.338;2023-07-31T02:15:32;94915.34;;;11.90;86.68
47636;BME280;33364;50.766;15.338;2023-07-31T02:17:58;94912.09;;;11.93;86.64
47636;BME280;33364;50.766;15.338;2023-07-31T02:20:24;94906.63;;;12.03;86.34
47636;BME280;33364;50.766;15.338;2023-07-31T02:22:50;94912.78;;;11.98;85.51
47636;BME280;33364;50.766;15.338;2023-07-31T02:25:16;94916.00;;;11.95;85.47
47636;BME280;33364;50.766;15.338;2023-07-31T02:27:42;94927.78;;;12.03;85.60
47636;BME280;33364;50.766;15.338;2023-07-31T02:30:08;94926.31;;;11.97;85.35
47636;BME280;33364;50.766;15.338;2023-07-31T02:32:34;94930.16;;;12.04;85.69
47636;BME280;33364;50.766;15.338;2023-07-31T02:35:00;94923.56;;;12.02;85.21
47636;BME280;33364;50.766;15.338;2023-07-31T02:37:26;94922.41;;;12.08;85.24
47636;BME280;33364;50.766;15.338;2023-07-31T02:39:54;94911.19;;;12.11;84.26
47636;BME280;33364;50.766;15.338;2023-07-31T02:42:20;94915.84;;;12.05;84.25
47636;BME280;33364;50.766;15.338;2023-07-31T02:44:45;94913.84;;;12.11;84.64
47636;BME280;33364;50.766;15.338;2023-07-31T02:47:11;94918.09;;;11.98;84.36
47636;BME280;33364;50.766;15.338;2023-07-31T02:49:37;94912.91;;;11.93;84.64
47636;BME280;33364;50.766;15.338;2023-07-31T02:52:03;94911.34;;;11.78;85.23
47636;BME280;33364;50.766;15.338;2023-07-31T02:54:29;94915.50;;;11.66;85.58
47636;BME280;33364;50.766;15.338;2023-07-31T02:56:55;94915.69;;;11.56;86.27
47636;BME280;33364;50.766;15.338;2023-07-31T02:59:21;94913.41;;;11.49;86.45
47636;BME280;33364;50.766;15.338;2023-07-31T03:01:47;94909.50;;;11.47;86.88
47636;BME280;33364;50.766;15.338;2023-07-31T03:04:12;94906.72;;;11.38;87.16
47636;BME280;33364;50.766;15.338;2023-07-31T03:06:38;94909.09;;;11.39;87.66
47636;BME280;33364;50.766;15.338;2023-07-31T03:09:04;94917.13;;;11.48;87.35
47636;BME280;33364;50.766;15.338;2023-07-31T03:11:30;94914.97;;;11.50;87.30
47636;BME280;33364;50.766;15.338;2023-07-31T03:13:55;94912.84;;;11.52;86.94
47636;BME280;33364;50.766;15.338;2023-07-31T03:16:21;94914.00;;;11.60;87.32
47636;BME280;33364;50.766;15.338;2023-07-31T03:18:47;94914.41;;;11.67;86.51
47636;BME280;33364;50.766;15.338;2023-07-31T03:21:14;94916.19;;;11.71;86.23
47636;BME280;33364;50.766;15.338;2023-07-31T03:23:39;94922.63;;;11.65;86.14
47636;BME280;33364;50.766;15.338;2023-07-31T03:26:07;94914.72;;;11.65;86.34
47636;BME280;33364;50.766;15.338;2023-07-31T03:28:33;94914.13;;;11.68;86.15
47636;BME280;33364;50.766;15.338;2023-07-31T03:30:59;94916.28;;;11.66;86.45
47636;BME280;33364;50.766;15.338;2023-07-31T03:33:25;94914.84;;;11.74;86.02
47636;BME280;33364;50.766;15.338;2023-07-31T03:35:52;94914.06;;;11.87;85.90
47636;BME280;33364;50.766;15.338;2023-07-31T03:38:18;94903.19;;;11.89;85.04
47636;BME280;33364;50.766;15.338;2023-07-31T03:40:44;94903.47;;;11.87;84.63
47636;BME280;33364;50.766;15.338;2023-07-31T03:43:11;94902.50;;;11.83;85.18
47636;BME280;33364;50.766;15.338;2023-07-31T03:45:37;94910.44;;;11.83;85.18
47636;BME280;33364;50.766;15.338;2023-07-31T03:48:04;94910.81;;;11.76;85.13
47636;BME280;33364;50.766;15.338;2023-07-31T03:50:31;94908.78;;;11.73;85.66
47636;BME280;33364;50.766;15.338;2023-07-31T03:52:56;94912.66;;;11.62;85.69
47636;BME280;33364;50.766;15.338;2023-07-31T03:55:22;94905.28;;;11.59;86.02
47636;BME280;33364;50.766;15.338;2023-07-31T03:57:48;94905.88;;;11.56;85.99
47636;BME280;33364;50.766;15.338;2023-07-31T04:00:14;94911.88;;;11.62;86.33
47636;BME280;33364;50.766;15.338;2023-07-31T04:02:40;94912.56;;;11.67;85.86
47636;BME280;33364;50.766;15.338;2023-07-31T04:05:06;94911.44;;;11.73;85.50
47636;BME280;33364;50.766;15.338;2023-07-31T04:07:32;94910.19;;;11.66;85.58
47636;BME280;33364;50.766;15.338;2023-07-31T04:09:59;94909.75;;;11.77;85.41
47636;BME280;33364;50.766;15.338;2023-07-31T04:12:24;94904.31;;;11.69;85.42
47636;BME280;33364;50.766;15.338;2023-07-31T04:14:50;94912.16;;;11.60;85.73
47636;BME280;33364;50.766;15.338;2023-07-31T04:17:17;94918.13;;;11.66;85.78
47636;BME280;33364;50.766;15.338;2023-07-31T04:19:43;94923.16;;;11.67;85.45
47636;BME280;33364;50.766;15.338;2023-07-31T04:22:09;94917.06;;;11.67;85.54
47636;BME280;33364;50.766;15.338;2023-07-31T04:24:35;94921.47;;;11.71;85.72
47636;BME280;33364;50.766;15.338;2023-07-31T04:27:00;94917.06;;;11.67;85.32
47636;BME280;33364;50.766;15.338;2023-07-31T04:29:27;94917.34;;;11.65;85.44
47636;BME280;33364;50.766;15.338;2023-07-31T04:31:52;94907.84;;;11.64;85.64
47636;BME280;33364;50.766;15.338;2023-07-31T04:34:18;94913.63;;;11.66;85.95
47636;BME280;33364;50.766;15.338;2023-07-31T04:36:44;94908.97;;;11.77;85.87
47636;BME280;33364;50.766;15.338;2023-07-31T04:39:10;94904.78;;;11.90;86.04
47636;BME280;33364;50.766;15.338;2023-07-31T04:41:35;94906.63;;;12.03;85.48
47636;BME280;33364;50.766;15.338;2023-07-31T04:44:01;94896.22;;;11.93;85.55
47636;BME280;33364;50.766;15.338;2023-07-31T04:46:29;94900.06;;;11.87;86.25
47636;BME280;33364;50.766;15.338;2023-07-31T04:48:55;94884.97;;;11.87;86.35
47636;BME280;33364;50.766;15.338;2023-07-31T04:51:21;94883.19;;;11.82;86.56
47636;BME280;33364;50.766;15.338;2023-07-31T04:53:47;94886.13;;;11.81;86.53
47636;BME280;33364;50.766;15.338;2023-07-31T04:56:13;94884.06;;;11.92;86.91
47636;BME280;33364;50.766;15.338;2023-07-31T04:58:39;94889.25;;;11.97;87.04
47636;BME280;33364;50.766;15.338;2023-07-31T05:01:05;94879.94;;;12.13;86.68
47636;BME280;33364;50.766;15.338;2023-07-31T05:03:31;94883.16;;;12.23;86.26
47636;BME280;33364;50.766;15.338;2023-07-31T05:05:56;94887.38;;;12.24;85.63
47636;BME280;33364;50.766;15.338;2023-07-31T05:08:22;94894.44;;;12.29;85.72
47636;BME280;33364;50.766;15.338;2023-07-31T05:10:48;94899.63;;;12.34;86.07
47636;BME280;33364;50.766;15.338;2023-07-31T05:13:14;94894.59;;;12.33;86.03
47636;BME280;33364;50.766;15.338;2023-07-31T05:15:41;94897.94;;;12.38;86.04
47636;BME280;33364;50.766;15.338;2023-07-31T05:18:07;94896.69;;;12.36;85.83
47636;BME280;33364;50.766;15.338;2023-07-31T05:20:32;94889.91;;;12.30;86.16
47636;BME280;33364;50.766;15.338;2023-07-31T05:22:58;94891.78;;;12.29;85.93
47636;BME280;33364;50.766;15.338;2023-07-31T05:25:24;94894.31;;;12.34;86.03
47636;BME280;33364;50.766;15.338;2023-07-31T05:27:50;94898.13;;;12.42;85.78
47636;BME280;33364;50.766;15.338;2023-07-31T05:30:16;94898.50;;;12.49;85.40
47636;BME280;33364;50.766;15.338;2023-07-31T05:32:42;94901.03;;;12.54;85.53
47636;BME280;33364;50.766;15.338;2023-07-31T05:35:07;94899.66;;;12.56;85.05
47636;BME280;33364;50.766;15.338;2023-07-31T05:37:34;94909.31;;;12.52;85.73
47636;BME280;33364;50.766;15.338;2023-07-31T05:40:00;94896.63;;;12.49;85.27
47636;BME280;33364;50.766;15.338;2023-07-31T05:42:26;94904.69;;;12.58;84.82
47636;BME280;33364;50.766;15.338;2023-07-31T05:44:51;94887.63;;;12.50;84.95
47636;BME280;33364;50.766;15.338;2023-07-31T05:47:18;94888.91;;;12.39;85.90
47636;BME280;33364;50.766;15.338;2023-07-31T05:49:43;94889.19;;;12.51;85.72
47636;BME280;33364;50.766;15.338;2023-07-31T05:52:10;94892.41;;;12.62;85.55
47636;BME280;33364;50.766;15.338;2023-07-31T05:54:35;94899.78;;;12.51;85.63
47636;BME280;33364;50.766;15.338;2023-07-31T05:57:01;94890.22;;;12.64;85.25
47636;BME280;33364;50.766;15.338;2023-07-31T05:59:27;94889.69;;;12.76;84.90
47636;BME280;33364;50.766;15.338;2023-07-31T06:01:53;94890.72;;;12.88;84.18
47636;BME280;33364;50.766;15.338;2023-07-31T06:04:19;94894.59;;;13.04;84.05
47636;BME280;33364;50.766;15.338;2023-07-31T06:06:45;94891.81;;;13.09;83.42
47636;BME280;33364;50.766;15.338;2023-07-31T06:09:10;94887.78;;;13.12;84.15
47636;BME280;33364;50.766;15.338;2023-07-31T06:11:37;94892.59;;;13.10;83.35
47636;BME280;33364;50.766;15.338;2023-07-31T06:14:03;94887.28;;;13.10;83.16
47636;BME280;33364;50.766;15.338;2023-07-31T06:16:29;94896.72;;;13.16;83.20
47636;BME280;33364;50.766;15.338;2023-07-31T06:18:54;94902.41;;;13.09;83.76
47636;BME280;33364;50.766;15.338;2023-07-31T06:21:20;94893.63;;;13.00;84.52
47636;BME280;33364;50.766;15.338;2023-07-31T06:23:46;94888.50;;;13.04;84.97
47636;BME280;33364;50.766;15.338;2023-07-31T06:26:12;94892.41;;;13.06;85.54
47636;BME280;33364;50.766;15.338;2023-07-31T06:28:37;94897.53;;;13.03;85.15
47636;BME280;33364;50.766;15.338;2023-07-31T06:31:03;94899.22;;;12.99;86.12
47636;BME280;33364;50.766;15.338;2023-07-31T06:33:29;94891.84;;;12.96;86.56
47636;BME280;33364;50.766;15.338;2023-07-31T06:35:55;94891.63;;;13.06;86.21
47636;BME280;33364;50.766;15.338;2023-07-31T06:38:24;94882.13;;;13.05;85.72
47636;BME280;33364;50.766;15.338;2023-07-31T06:40:51;94886.63;;;13.04;86.11
47636;BME280;33364;50.766;15.338;2023-07-31T06:43:16;94882.50;;;13.12;85.88
47636;BME280;33364;50.766;15.338;2023-07-31T06:45:42;94878.84;;;13.08;86.77
47636;BME280;33364;50.766;15.338;2023-07-31T06:48:08;94891.03;;;13.09;86.56
47636;BME280;33364;50.766;15.338;2023-07-31T06:50:34;94890.66;;;13.02;87.30
47636;BME280;33364;50.766;15.338;2023-07-31T06:52:59;94893.75;;;12.95;87.50
47636;BME280;33364;50.766;15.338;2023-07-31T06:55:26;94890.72;;;12.88;87.60
47636;BME280;33364;50.766;15.338;2023-07-31T06:57:54;94898.72;;;12.97;87.78
47636;BME280;33364;50.766;15.338;2023-07-31T07:00:21;94901.72;;;12.95;87.81
47636;BME280;33364;50.766;15.338;2023-07-31T07:02:48;94898.72;;;12.97;87.01
47636;BME280;33364;50.766;15.338;2023-07-31T07:05:15;94899.94;;;12.91;85.53
47636;BME280;33364;50.766;15.338;2023-07-31T07:07:41;94895.78;;;12.98;85.83
47636;BME280;33364;50.766;15.338;2023-07-31T07:10:07;94893.19;;;13.07;85.87
47636;BME280;33364;50.766;15.338;2023-07-31T07:12:33;94893.59;;;13.14;86.13
47636;BME280;33364;50.766;15.338;2023-07-31T07:14:59;94895.19;;;13.24;86.08
47636;BME280;33364;50.766;15.338;2023-07-31T07:17:27;94883.78;;;13.45;85.67
47636;BME280;33364;50.766;15.338;2023-07-31T07:19:53;94891.19;;;13.57;85.55
47636;BME280;33364;50.766;15.338;2023-07-31T07:22:19;94891.84;;;13.71;85.15
47636;BME280;33364;50.766;15.338;2023-07-31T07:24:45;94890.34;;;13.79;86.01
47636;BME280;33364;50.766;15.338;2023-07-31T07:27:10;94888.50;;;13.88;85.81
47636;BME280;33364;50.766;15.338;2023-07-31T07:29:38;94893.03;;;13.96;84.61
47636;BME280;33364;50.766;15.338;2023-07-31T07:32:04;94886.84;;;14.09;84.21
47636;BME280;33364;50.766;15.338;2023-07-31T07:34:30;94888.69;;;14.00;84.07
47636;BME280;33364;50.766;15.338;2023-07-31T07:36:56;94889.75;;;13.90;83.00
47636;BME280;33364;50.766;15.338;2023-07-31T07:39:22;94892.88;;;13.92;83.86
47636;BME280;33364;50.766;15.338;2023-07-31T07:41:48;94893.78;;;13.79;84.14
47636;BME280;33364;50.766;15.338;2023-07-31T07:44:14;94887.97;;;13.77;84.85
47636;BME280;33364;50.766;15.338;2023-07-31T07:46:41;94894.22;;;13.73;84.48
47636;BME280;33364;50.766;15.338;2023-07-31T07:49:07;94892.50;;;13.77;85.41
47636;BME280;33364;50.766;15.338;2023-07-31T07:51:32;94883.31;;;13.74;85.68
47636;BME280;33364;50.766;15.338;2023-07-31T07:53:59;94896.88;;;13.73;85.53
47636;BME280;33364;50.766;15.338;2023-07-31T07:56:26;94886.13;;;13.78;85.08
47636;BME280;33364;50.766;15.338;2023-07-31T07:58:53;94887.84;;;13.82;85.21
47636;BME280;33364;50.766;15.338;2023-07-31T08:01:19;94887.72;;;13.87;85.61
47636;BME280;33364;50.766;15.338;2023-07-31T08:03:46;94883.66;;;13.90;84.56
47636;BME280;33364;50.766;15.338;2023-07-31T08:06:12;94882.75;;;13.94;84.05
47636;BME280;33364;50.766;15.338;2023-07-31T08:08:38;94885.72;;;14.02;82.91
47636;BME280;33364;50.766;15.338;2023-07-31T08:11:04;94880.41;;;14.02;83.65
47636;BME280;33364;50.766;15.338;2023-07-31T08:13:31;94883.66;;;13.90;82.56
47636;BME280;33364;50.766;15.338;2023-07-31T08:15:56;94879.16;;;13.90;81.39
47636;BME280;33364;50.766;15.338;2023-07-31T08:18:22;94885.91;;;14.05;82.37
47636;BME280;33364;50.766;15.338;2023-07-31T08:20:48;94890.25;;;14.01;82.26
47636;BME280;33364;50.766;15.338;2023-07-31T08:23:14;94892.88;;;13.92;82.06
47636;BME280;33364;50.766;15.338;2023-07-31T08:25:40;94889.94;;;14.03;82.28
47636;BME280;33364;50.766;15.338;2023-07-31T08:28:06;94898.31;;;13.79;82.97
47636;BME280;33364;50.766;15.338;2023-07-31T08:30:32;94897.84;;;13.85;83.16
47636;BME280;33364;50.766;15.338;2023-07-31T08:33:04;94903.34;;;13.89;83.23
47636;BME280;33364;50.766;15.338;2023-07-31T08:35:30;94898.94;;;13.84;83.25
47636;BME280;33364;50.766;15.338;2023-07-31T08:37:56;94902.34;;;13.76;83.88
47636;BME280;33364;50.766;15.338;2023-07-31T08:40:22;94909.06;;;13.82;82.65
47636;BME280;33364;50.766;15.338;2023-07-31T08:42:49;94906.41;;;13.74;82.43
47636;BME280;33364;50.766;15.338;2023-07-31T08:45:19;94907.34;;;13.78;84.57
47636;BME280;33364;50.766;15.338;2023-07-31T08:47:51;94900.91;;;13.70;84.16
47636;BME280;33364;50.766;15.338;2023-07-31T08:50:18;94900.34;;;13.51;84.85
47636;BME280;33364;50.766;15.338;2023-07-31T08:52:49;94898.06;;;13.58;84.46
47636;BME280;33364;50.766;15.338;2023-07-31T08:55:15;94900.75;;;13.67;84.01
47636;BME280;33364;50.766;15.338;2023-07-31T08:57:42;94902.31;;;13.68;83.86
47636;BME280;33364;50.766;15.338;2023-07-31T09:00:10;94899.53;;;13.73;83.04
47636;BME280;33364;50.766;15.338;2023-07-31T09:03:09;94902.47;;;13.71;83.28
47636;BME280;33364;50.766;15.338;2023-07-31T09:05:36;94898.22;;;13.62;84.16
47636;BME280;33364;50.766;15.338;2023-07-31T09:08:06;94899.66;;;13.68;84.49
47636;BME280;33364;50.766;15.338;2023-07-31T09:10:33;94899.94;;;13.66;85.32
47636;BME280;33364;50.766;15.338;2023-07-31T09:12:59;94899.53;;;13.73;85.11
47636;BME280;33364;50.766;15.338;2023-07-31T09:15:25;94899.88;;;13.80;84.46
47636;BME280;33364;50.766;15.338;2023-07-31T09:17:59;94899.88;;;13.80;84.63
47636;BME280;33364;50.766;15.338;2023-07-31T09:20:26;94898.25;;;13.70;85.75
47636;BME280;33364;50.766;15.338;2023-07-31T09:22:52;94899.16;;;13.66;86.15
47636;BME280;33364;50.766;15.338;2023-07-31T09:25:25;94899.78;;;13.63;85.88
47636;BME280;33364;50.766;15.338;2023-07-31T09:30:25;94905.38;;;13.52;86.30
47636;BME280;33364;50.766;15.338;2023-07-31T09:33:00;94907.88;;;13.58;85.73
47636;BME280;33364;50.766;15.338;2023-07-31T09:35:29;94906.81;;;13.59;86.31
47636;BME280;33364;50.766;15.338;2023-07-31T09:37:58;94901.94;;;13.61;87.17
47636;BME280;33364;50.766;15.338;2023-07-31T09:40:32;94904.91;;;13.59;87.31
47636;BME280;33364;50.766;15.338;2023-07-31T09:43:21;94901.16;;;13.60;86.12
47636;BME280;33364;50.766;15.338;2023-07-31T09:45:47;94899.31;;;13.61;86.55
47636;BME280;33364;50.766;15.338;2023-07-31T09:48:17;94890.66;;;13.46;87.01
47636;BME280;33364;50.766;15.338;2023-07-31T09:50:48;94895.69;;;13.57;86.44
47636;BME280;33364;50.766;15.338;2023-07-31T09:53:16;94887.88;;;13.51;86.98
47636;BME280;33364;50.766;15.338;2023-07-31T09:55:42;94885.75;;;13.71;87.17
47636;BME280;33364;50.766;15.338;2023-07-31T09:58:11;94881.75;;;13.82;86.39
47636;BME280;33364;50.766;15.338;2023-07-31T10:00:37;94877.88;;;13.88;85.99
47636;BME280;33364;50.766;15.338;2023-07-31T10:03:08;94868.69;;;13.94;86.04
47636;BME280;33364;50.766;15.338;2023-07-31T10:05:49;94874.50;;;14.05;85.79
47636;BME280;33364;50.766;15.338;2023-07-31T10:08:18;94874.00;;;14.03;84.80
47636;BME280;33364;50.766;15.338;2023-07-31T10:10:45;94877.00;;;14.10;85.94
47636;BME280;33364;50.766;15.338;2023-07-31T10:13:12;94878.66;;;13.88;85.66
47636;BME280;33364;50.766;15.338;2023-07-31T10:15:39;94869.13;;;13.87;86.26
47636;BME280;33364;50.766;15.338;2023-07-31T10:18:07;94863.38;;;13.94;85.82
47636;BME280;33364;50.766;15.338;2023-07-31T10:20:34;94874.19;;;14.06;86.77
47636;BME280;33364;50.766;15.338;2023-07-31T10:23:01;94875.19;;;14.27;86.67
47636;BME280;33364;50.766;15.338;2023-07-31T10:25:27;94869.09;;;14.35;86.12
47636;BME280;33364;50.766;15.338;2023-07-31T10:27:54;94866.63;;;14.48;86.57
47636;BME280;33364;50.766;15.338;2023-07-31T10:30:32;94854.91;;;14.49;86.18
47636;BME280;33364;50.766;15.338;2023-07-31T10:33:00;94858.03;;;14.42;85.77
47636;BME280;33364;50.766;15.338;2023-07-31T10:35:27;94855.69;;;14.41;84.16
47636;BME280;33364;50.766;15.338;2023-07-31T10:37:53;94855.19;;;14.38;84.71
47636;BME280;33364;50.766;15.338;2023-07-31T10:40:28;94848.34;;;14.46;84.62
47636;BME280;33364;50.766;15.338;2023-07-31T10:42:56;94851.94;;;14.50;85.29
47636;BME280;33364;50.766;15.338;2023-07-31T10:45:38;94845.53;;;14.43;85.07
47636;BME280;33364;50.766;15.338;2023-07-31T10:48:14;94844.59;;;14.47;85.50
47636;BME280;33364;50.766;15.338;2023-07-31T10:50:48;94849.13;;;14.47;84.90
47636;BME280;33364;50.766;15.338;2023-07-31T10:53:32;94844.41;;;14.44;84.63
47636;BME280;33364;50.766;15.338;2023-07-31T10:56:02;94845.53;;;14.43;84.24
47636;BME280;33364;50.766;15.338;2023-07-31T10:58:28;94842.25;;;14.46;84.58
47636;BME280;33364;50.766;15.338;2023-07-31T11:00:56;94846.94;;;14.49;85.11
47636;BME280;33364;50.766;15.338;2023-07-31T11:03:25;94841.31;;;14.50;86.01
47636;BME280;33364;50.766;15.338;2023-07-31T11:05:53;94836.94;;;14.46;86.56
47636;BME280;33364;50.766;15.338;2023-07-31T11:08:25;94833.94;;;14.38;84.84
47636;BME280;33364;50.766;15.338;2023-07-31T11:11:12;94843.50;;;14.48;84.89
47636;BME280;33364;50.766;15.338;2023-07-31T11:13:45;94832.25;;;14.43;84.49
47636;BME280;33364;50.766;15.338;2023-07-31T11:16:12;94821.59;;;14.60;84.63
47636;BME280;33364;50.766;15.338;2023-07-31T11:18:40;94824.72;;;14.70;85.73
47636;BME280;33364;50.766;15.338;2023-07-31T11:21:07;94821.28;;;14.70;84.57
47636;BME280;33364;50.766;15.338;2023-07-31T11:23:36;94817.88;;;14.69;84.47
47636;BME280;33364;50.766;15.338;2023-07-31T11:26:02;94819.09;;;14.72;84.60
47636;BME280;33364;50.766;15.338;2023-07-31T11:28:32;94813.19;;;14.75;84.92
47636;BME280;33364;50.766;15.338;2023-07-31T11:30:59;94822.53;;;14.81;83.94
47636;BME280;33364;50.766;15.338;2023-07-31T11:33:26;94817.69;;;14.83;82.88
47636;BME280;33364;50.766;15.338;2023-07-31T11:35:51;94815.03;;;14.83;82.50
47636;BME280;33364;50.766;15.338;2023-07-31T11:38:35;94815.81;;;14.84;84.25
47636;BME280;33364;50.766;15.338;2023-07-31T11:41:04;94814.38;;;14.86;85.30
47636;BME280;33364;50.766;15.338;2023-07-31T11:43:31;94814.25;;;14.83;83.43
47636;BME280;33364;50.766;15.338;2023-07-31T11:45:59;94806.56;;;14.81;83.24
47636;BME280;33364;50.766;15.338;2023-07-31T11:48:27;94816.44;;;14.89;83.33
47636;BME280;33364;50.766;15.338;2023-07-31T11:51:03;94818.44;;;14.92;82.28
47636;BME280;33364;50.766;15.338;2023-07-31T11:53:50;94809.69;;;14.92;82.32
47636;BME280;33364;50.766;15.338;2023-07-31T11:56:18;94801.72;;;15.00;83.27
47636;BME280;33364;50.766;15.338;2023-07-31T11:58:53;94812.00;;;15.02;82.45
47636;BME280;33364;50.766;15.338;2023-07-31T12:01:21;94806.84;;;15.05;84.31
47636;BME280;33364;50.766;15.338;2023-07-31T12:03:51;94803.88;;;15.07;81.86
47636;BME280;33364;50.766;15.338;2023-07-31T12:06:17;94810.75;;;15.08;83.74
47636;BME280;33364;50.766;15.338;2023-07-31T12:08:43;94794.66;;;15.04;80.45
47636;BME280;33364;50.766;15.338;2023-07-31T12:11:09;94801.38;;;15.10;80.05
47636;BME280;33364;50.766;15.338;2023-07-31T12:13:35;94798.41;;;15.03;80.99
47636;BME280;33364;50.766;15.338;2023-07-31T12:16:02;94799.16;;;15.12;81.64
47636;BME280;33364;50.766;15.338;2023-07-31T12:18:33;94797.28;;;15.13;82.93
47636;BME280;33364;50.766;15.338;2023-07-31T12:21:02;94794.13;;;15.19;82.83
47636;BME280;33364;50.766;15.338;2023-07-31T12:23:32;94789.13;;;15.18;84.38
47636;BME280;33364;50.766;15.338;2023-07-31T12:28:27;94772.69;;;15.25;84.62
47636;BME280;33364;50.766;15.338;2023-07-31T12:30:57;94769.41;;;15.19;81.93
47636;BME280;33364;50.766;15.338;2023-07-31T12:33:24;94779.09;;;15.32;83.33
47636;BME280;33364;50.766;15.338;2023-07-31T12:35:49;94778.00;;;15.25;83.47
47636;BME280;33364;50.766;15.338;2023-07-31T12:38:15;94774.84;;;15.31;83.61
47636;BME280;33364;50.766;15.338;2023-07-31T12:40:41;94776.44;;;15.23;84.54
47636;BME280;33364;50.766;15.338;2023-07-31T12:43:08;94765.97;;;15.27;83.84
47636;BME280;33364;50.766;15.338;2023-07-31T12:45:34;94765.91;;;15.36;85.29
47636;BME280;33364;50.766;15.338;2023-07-31T12:48:01;94759.19;;;15.38;85.47
47636;BME280;33364;50.766;15.338;2023-07-31T12:50:27;94756.94;;;15.49;85.77
47636;BME280;33364;50.766;15.338;2023-07-31T12:52:53;94754.44;;;15.82;85.46
47636;BME280;33364;50.766;15.338;2023-07-31T12:55:20;94751.97;;;15.97;83.94
47636;BME280;33364;50.766;15.338;2023-07-31T12:57:47;94748.22;;;15.98;83.07
47636;BME280;33364;50.766;15.338;2023-07-31T13:00:13;94753.81;;;16.05;81.63
47636;BME280;33364;50.766;15.338;2023-07-31T13:02:39;94746.59;;;16.06;81.88
47636;BME280;33364;50.766;15.338;2023-07-31T13:05:05;94743.25;;;16.18;82.45